Time;durP1;ratioP1;P1;durP2;ratioP2;P2;SDS_P1;SDS_P2;PMS_P1;PMS_P2;Temp;Humidity;BMP_temperature;BMP_pressure;BME280_temperature;BME280_humidity;BME280_pressure;Samples;Min_cycle;Max_cycle;Signal;HPM_P1;HPM_P2
2022/10/01 00:00:34;;;;;;;0.55;0.55;;;9.70;99.90;;;;;;5012452;28;20708;-70
2022/10/01 00:03:00;;;;;;;0.50;0.50;;;9.70;99.90;;;;;;5012593;28;20199;-70
2022/10/01 00:05:26;;;;;;;0.63;0.63;;;9.70;99.90;;;;;;5012486;28;20195;-71
2022/10/01 00:07:51;;;;;;;0.60;0.60;;;9.70;99.90;;;;;;5013672;28;20194;-70
2022/10/01 00:10:17;;;;;;;0.60;0.60;;;9.80;99.90;;;;;;5013423;28;20261;-71
2022/10/01 00:12:46;;;;;;;0.70;0.70;;;9.80;99.90;;;;;;5015074;28;20207;-71
2022/10/01 00:15:14;;;;;;;0.68;0.68;;;9.80;99.90;;;;;;5016321;28;20671;-71
2022/10/01 00:17:40;;;;;;;1.23;0.95;;;9.80;99.90;;;;;;5016000;28;20206;-70
2022/10/01 00:20:06;;;;;;;0.60;0.60;;;9.90;99.90;;;;;;5031189;28;20190;-71
2022/10/01 00:22:36;;;;;;;0.60;0.60;;;9.90;99.90;;;;;;5015836;28;20658;-71
2022/10/01 00:25:03;;;;;;;0.50;0.50;;;9.90;99.90;;;;;;5016059;28;20194;-71
2022/10/01 00:27:30;;;;;;;0.50;0.50;;;9.90;99.90;;;;;;5015637;28;20230;-71
2022/10/01 00:29:56;;;;;;;0.50;0.50;;;9.90;99.90;;;;;;5027635;28;20247;-71
2022/10/01 00:32:22;;;;;;;0.82;0.82;;;9.90;99.90;;;;;;5055371;28;20193;-71
2022/10/01 00:34:48;;;;;;;0.60;0.60;;;9.90;99.90;;;;;;5035872;28;20294;-71
2022/10/01 00:37:16;;;;;;;0.60;0.60;;;9.80;99.90;;;;;;5027106;28;20282;-70
2022/10/01 00:39:43;;;;;;;0.50;0.50;;;9.90;99.90;;;;;;5015532;28;20191;-70
2022/10/01 00:42:19;;;;;;;0.60;0.60;;;9.90;99.90;;;;;;5015759;28;20680;-70
2022/10/01 00:44:45;;;;;;;0.52;0.52;;;9.90;99.90;;;;;;5015803;28;20218;-70
2022/10/01 00:47:32;;;;;;;0.73;0.73;;;9.90;99.90;;;;;;5015542;28;20233;-71
2022/10/01 00:50:27;;;;;;;0.50;0.50;;;9.90;99.90;;;;;;5015404;28;20182;-71
2022/10/01 00:53:00;;;;;;;0.60;0.60;;;9.90;99.90;;;;;;5017968;28;20566;-71
2022/10/01 00:55:36;;;;;;;1.23;1.13;;;9.90;99.90;;;;;;5015338;28;20194;-70
2022/10/01 00:58:03;;;;;;;0.50;0.50;;;9.90;99.90;;;;;;5015448;28;20670;-71
2022/10/01 01:00:30;;;;;;;0.60;0.60;;;9.80;99.90;;;;;;5015163;28;20183;-70
2022/10/01 01:02:56;;;;;;;0.52;0.52;;;9.90;99.90;;;;;;5015292;28;20194;-70
2022/10/01 01:05:22;;;;;;;0.60;0.60;;;9.80;99.90;;;;;;5015119;28;20261;-70
2022/10/01 01:07:51;;;;;;;0.60;0.60;;;9.80;99.90;;;;;;5015119;28;20194;-71
2022/10/01 01:10:27;;;;;;;0.50;0.50;;;9.80;99.90;;;;;;5015210;28;20215;-71
2022/10/01 01:13:26;;;;;;;0.60;0.60;;;9.90;99.90;;;;;;5015115;28;20256;-71
2022/10/01 01:16:15;;;;;;;0.70;0.70;;;9.90;99.90;;;;;;5007918;28;20210;-70
2022/10/01 01:19:09;;;;;;;0.70;0.70;;;9.90;99.90;;;;;;5004695;28;20219;-70
2022/10/01 01:21:37;;;;;;;0.60;0.60;;;9.90;99.90;;;;;;5029901;28;20195;-70
2022/10/01 01:24:15;;;;;;;0.60;0.60;;;9.90;99.90;;;;;;5014759;28;20214;-70
2022/10/01 01:27:06;;;;;;;0.60;0.60;;;9.90;99.90;;;;;;5025995;28;20201;-70
2022/10/01 01:29:40;;;;;;;0.90;0.80;;;9.90;99.90;;;;;;5034185;28;20205;-70
2022/10/01 01:32:17;;;;;;;0.60;0.60;;;9.90;99.90;;;;;;5034586;28;20190;-71
2022/10/01 01:34:47;;;;;;;0.60;0.60;;;9.90;99.90;;;;;;5015869;28;20202;-71
2022/10/01 01:37:16;;;;;;;0.70;0.70;;;9.90;99.90;;;;;;5014711;28;20325;-71
2022/10/01 01:39:46;;;;;;;0.77;0.73;;;9.90;99.90;;;;;;5014452;28;20195;-71
2022/10/01 01:42:20;;;;;;;0.60;0.60;;;9.90;99.90;;;;;;5014495;28;20534;-71
2022/10/01 01:44:47;;;;;;;0.60;0.60;;;9.80;99.90;;;;;;5014551;28;20198;-72
2022/10/01 01:47:13;;;;;;;0.60;0.60;;;9.80;99.90;;;;;;5014462;28;20195;-71
2022/10/01 01:49:41;;;;;;;0.50;0.50;;;9.80;99.90;;;;;;5014192;28;20269;-72
2022/10/01 01:52:14;;;;;;;0.60;0.60;;;9.70;99.90;;;;;;5014301;28;20187;-72
2022/10/01 01:54:43;;;;;;;0.60;0.60;;;9.60;99.90;;;;;;5045951;28;20708;-72
2022/10/01 01:57:13;;;;;;;0.60;0.60;;;9.50;99.90;;;;;;5014200;28;20710;-73
2022/10/01 01:59:40;;;;;;;1.23;1.05;;;9.40;99.90;;;;;;5014088;28;20198;-72
2022/10/01 02:02:09;;;;;;;0.60;0.60;;;9.20;99.90;;;;;;5019248;28;20250;-71
2022/10/01 02:04:38;;;;;;;0.60;0.60;;;9.10;99.90;;;;;;5028992;28;20195;-71
2022/10/01 02:07:04;;;;;;;0.50;0.50;;;9.00;99.90;;;;;;5029412;28;20260;-70
2022/10/01 02:09:35;;;;;;;0.52;0.52;;;8.90;99.90;;;;;;5013783;28;20198;-70
2022/10/01 02:12:11;;;;;;;0.60;0.60;;;8.90;99.90;;;;;;5013822;28;20542;-70
2022/10/01 02:15:03;;;;;;;0.77;0.77;;;8.90;99.90;;;;;;5028890;28;20623;-70
2022/10/01 02:17:54;;;;;;;0.75;0.75;;;8.90;99.90;;;;;;5020221;28;20575;-71
2022/10/01 02:20:33;;;;;;;0.82;0.82;;;8.90;99.90;;;;;;5013578;28;20681;-71
2022/10/01 02:23:10;;;;;;;0.60;0.60;;;8.90;99.90;;;;;;5025484;28;20225;-70
2022/10/01 02:25:44;;;;;;;0.70;0.70;;;8.90;99.90;;;;;;5033293;28;20217;-70
2022/10/01 02:28:14;;;;;;;0.60;0.60;;;9.00;99.90;;;;;;5033407;28;20689;-70
2022/10/01 02:30:43;;;;;;;0.70;0.70;;;9.00;99.90;;;;;;5017468;28;20202;-71
2022/10/01 02:33:10;;;;;;;0.60;0.60;;;9.00;99.90;;;;;;5012246;28;20219;-70
2022/10/01 02:35:37;;;;;;;0.55;0.55;;;9.10;99.90;;;;;;5012892;28;20571;-71
2022/10/01 02:38:06;;;;;;;0.50;0.50;;;9.10;99.90;;;;;;5013409;28;20237;-71
2022/10/01 02:40:36;;;;;;;0.63;0.63;;;9.20;99.90;;;;;;5045241;28;20202;-71
2022/10/01 02:43:09;;;;;;;0.60;0.60;;;9.20;99.90;;;;;;5013468;28;20217;-70
2022/10/01 02:45:39;;;;;;;0.40;0.40;;;9.30;99.90;;;;;;5013547;28;20721;-70
2022/10/01 02:48:08;;;;;;;0.60;0.60;;;9.40;99.90;;;;;;5013487;28;20199;-70
2022/10/01 02:50:47;;;;;;;0.60;0.60;;;9.50;99.90;;;;;;5045027;28;20205;-70
2022/10/01 02:53:33;;;;;;;0.60;0.60;;;9.50;99.90;;;;;;5013373;28;20673;-70
2022/10/01 02:56:01;;;;;;;0.60;0.60;;;9.60;99.90;;;;;;5013229;28;20233;-70
2022/10/01 02:58:27;;;;;;;0.70;0.70;;;9.70;99.90;;;;;;5013100;28;20198;-70
2022/10/01 03:00:52;;;;;;;0.63;0.63;;;9.80;99.90;;;;;;5020281;28;20214;-70
2022/10/01 03:03:18;;;;;;;0.80;0.80;;;9.80;99.90;;;;;;5045481;28;20236;-70
2022/10/01 03:05:44;;;;;;;0.60;0.60;;;9.90;99.90;;;;;;5048108;28;20247;-70
2022/10/01 03:08:09;;;;;;;0.70;0.70;;;9.90;99.90;;;;;;5032818;28;20216;-70
2022/10/01 03:10:35;;;;;;;0.68;0.68;;;9.90;99.90;;;;;;5032610;28;20259;-70
2022/10/01 03:13:01;;;;;;;0.70;0.70;;;9.90;99.90;;;;;;5032706;28;20206;-70
2022/10/01 03:15:27;;;;;;;0.60;0.60;;;9.90;99.90;;;;;;5031335;28;20568;-70
2022/10/01 03:17:53;;;;;;;0.65;0.65;;;9.90;99.90;;;;;;5032669;28;20711;-70
2022/10/01 03:20:19;;;;;;;0.52;0.52;;;9.90;99.90;;;;;;5032544;28;20186;-71
2022/10/01 03:22:45;;;;;;;0.60;0.60;;;9.90;99.90;;;;;;5032642;28;20202;-72
2022/10/01 03:25:12;;;;;;;0.75;0.75;;;9.90;99.90;;;;;;5030799;28;20194;-71
2022/10/01 03:27:37;;;;;;;0.68;0.68;;;9.90;99.90;;;;;;5027681;28;20353;-70
2022/10/01 03:30:04;;;;;;;0.60;0.60;;;9.80;99.90;;;;;;5012910;28;20725;-70
2022/10/01 03:32:30;;;;;;;0.70;0.70;;;9.80;99.90;;;;;;5012639;28;20558;-71
2022/10/01 03:34:57;;;;;;;0.60;0.60;;;9.80;99.90;;;;;;5013109;28;20195;-70
2022/10/01 03:37:23;;;;;;;0.60;0.60;;;9.80;99.90;;;;;;5012566;28;20566;-70
2022/10/01 03:39:49;;;;;;;0.60;0.60;;;9.80;99.90;;;;;;5012811;28;20190;-71
2022/10/01 03:42:15;;;;;;;0.60;0.60;;;9.70;99.90;;;;;;5012754;28;20619;-71
2022/10/01 03:44:41;;;;;;;0.60;0.60;;;9.70;99.90;;;;;;5012617;28;20198;-70
2022/10/01 03:47:08;;;;;;;0.98;0.98;;;9.60;99.90;;;;;;5013869;28;20213;-70
2022/10/01 03:49:34;;;;;;;0.60;0.60;;;9.50;99.90;;;;;;5016503;28;20186;-70
2022/10/01 03:52:01;;;;;;;0.60;0.60;;;9.40;99.90;;;;;;5048558;28;20203;-71
2022/10/01 03:54:26;;;;;;;0.50;0.50;;;9.30;99.90;;;;;;5016411;28;20641;-71
2022/10/01 03:56:52;;;;;;;0.50;0.50;;;9.40;99.90;;;;;;5048257;28;20281;-72
2022/10/01 03:59:18;;;;;;;0.60;0.60;;;9.40;99.90;;;;;;5016487;28;20195;-71
2022/10/01 04:01:44;;;;;;;0.65;0.65;;;9.40;99.90;;;;;;5016388;28;20607;-71
2022/10/01 04:04:10;;;;;;;0.70;0.70;;;9.40;99.90;;;;;;5016376;28;20248;-72
2022/10/01 04:06:35;;;;;;;0.50;0.50;;;9.40;99.90;;;;;;5016279;28;20194;-71
2022/10/01 04:09:01;;;;;;;3.22;1.80;;;9.50;99.90;;;;;;5016394;28;20187;-70
2022/10/01 04:11:27;;;;;;;0.60;0.60;;;9.50;99.90;;;;;;5015956;28;20198;-71
2022/10/01 04:13:52;;;;;;;0.60;0.60;;;9.50;99.90;;;;;;5016209;28;20554;-71
2022/10/01 04:16:18;;;;;;;0.60;0.60;;;9.50;99.90;;;;;;5034489;28;20325;-70
2022/10/01 04:18:44;;;;;;;0.52;0.52;;;9.50;99.90;;;;;;5035870;28;20202;-70
2022/10/01 04:21:11;;;;;;;0.65;0.65;;;9.40;99.90;;;;;;5035862;28;20244;-71
2022/10/01 04:23:37;;;;;;;0.70;0.70;;;9.40;99.90;;;;;;5016091;28;20700;-70
2022/10/01 04:26:03;;;;;;;0.50;0.50;;;9.40;99.90;;;;;;5016072;28;20202;-70
2022/10/01 04:28:30;;;;;;;0.60;0.60;;;9.40;99.90;;;;;;5015590;28;20234;-70
2022/10/01 04:33:40;;;;;;;0.60;0.60;;;9.40;99.90;;;;;;5015623;28;20237;-71
2022/10/01 04:36:06;;;;;;;0.50;0.50;;;9.30;99.90;;;;;;5014258;28;20199;-71
2022/10/01 04:38:32;;;;;;;0.60;0.60;;;9.30;99.90;;;;;;5015704;28;20217;-70
2022/10/01 04:40:58;;;;;;;0.60;0.60;;;9.30;99.90;;;;;;5015753;28;20194;-71
2022/10/01 04:43:24;;;;;;;0.60;0.60;;;9.30;99.90;;;;;;5015533;28;20253;-71
2022/10/01 04:45:49;;;;;;;1.55;1.45;;;9.30;99.90;;;;;;5047381;28;20650;-71
2022/10/01 04:48:15;;;;;;;0.50;0.50;;;9.40;99.90;;;;;;5015622;28;20230;-71
2022/10/01 04:50:41;;;;;;;0.70;0.70;;;9.40;99.90;;;;;;5015448;28;20230;-71
2022/10/01 04:53:06;;;;;;;0.70;0.70;;;9.40;99.90;;;;;;5015225;28;20199;-71
2022/10/01 04:55:32;;;;;;;0.60;0.60;;;9.50;99.90;;;;;;5015301;28;20266;-71
2022/10/01 04:57:58;;;;;;;0.80;0.80;;;9.40;99.90;;;;;;5015447;28;20681;-72
2022/10/01 05:00:25;;;;;;;0.50;0.50;;;9.50;99.90;;;;;;5015230;28;20194;-72
2022/10/01 05:02:51;;;;;;;0.60;0.60;;;9.50;99.90;;;;;;5015347;28;20282;-72
2022/10/01 05:05:20;;;;;;;0.80;0.80;;;9.60;99.90;;;;;;5015192;28;20677;-71
2022/10/01 05:07:46;;;;;;;0.60;0.60;;;9.60;99.90;;;;;;5015117;28;20207;-72
2022/10/01 05:10:14;;;;;;;0.70;0.70;;;9.60;99.90;;;;;;5046913;28;20202;-72
2022/10/01 05:12:40;;;;;;;1.13;1.00;;;9.70;99.90;;;;;;5034099;28;20202;-71
2022/10/01 05:15:07;;;;;;;0.90;0.90;;;9.60;99.90;;;;;;5049979;28;20213;-71
2022/10/01 05:17:33;;;;;;;0.75;0.70;;;9.70;99.90;;;;;;5034031;28;20649;-70
2022/10/01 05:20:00;;;;;;;0.60;0.60;;;9.70;99.90;;;;;;5015032;28;20187;-70
2022/10/01 05:22:25;;;;;;;0.60;0.60;;;9.80;99.90;;;;;;5014791;28;20187;-71
2022/10/01 05:24:51;;;;;;;0.60;0.60;;;9.70;99.90;;;;;;5015038;28;20266;-70
2022/10/01 05:27:17;;;;;;;0.60;0.60;;;9.80;99.90;;;;;;5014749;28;20698;-71
2022/10/01 05:29:44;;;;;;;0.75;0.75;;;9.80;99.90;;;;;;5014749;28;20277;-70
2022/10/01 05:32:11;;;;;;;0.63;0.63;;;9.80;99.90;;;;;;5014677;28;20187;-70
2022/10/01 05:34:40;;;;;;;0.50;0.50;;;9.90;99.90;;;;;;5014323;28;20218;-71
2022/10/01 05:37:05;;;;;;;1.55;1.45;;;9.90;99.90;;;;;;5014508;28;20186;-69
2022/10/01 05:39:31;;;;;;;0.60;0.60;;;10.00;99.90;;;;;;5014450;28;20217;-69
2022/10/01 05:41:58;;;;;;;0.60;0.60;;;10.00;99.90;;;;;;5014550;28;20290;-70
2022/10/01 05:44:24;;;;;;;0.60;0.60;;;10.10;99.90;;;;;;5014276;28;20234;-70
2022/10/01 05:46:51;;;;;;;0.70;0.70;;;10.00;99.90;;;;;;5014677;28;20241;-71
2022/10/01 05:49:17;;;;;;;0.52;0.52;;;10.10;99.90;;;;;;5014316;28;20746;-70
2022/10/01 05:51:45;;;;;;;0.60;0.60;;;10.10;99.90;;;;;;5014302;28;20278;-71
2022/10/01 05:54:12;;;;;;;0.70;0.70;;;10.10;99.90;;;;;;5029466;28;20210;-72
2022/10/01 05:56:38;;;;;;;2.22;1.02;;;10.10;99.90;;;;;;5014090;28;20191;-72
2022/10/01 05:59:04;;;;;;;0.60;0.60;;;10.10;99.90;;;;;;5014335;28;20241;-71
2022/10/01 06:01:31;;;;;;;0.60;0.60;;;10.20;99.90;;;;;;5029158;28;20561;-71
2022/10/01 06:03:57;;;;;;;0.60;0.60;;;10.20;99.90;;;;;;5014286;28;20198;-71
2022/10/01 06:06:26;;;;;;;0.60;0.60;;;10.20;99.90;;;;;;5014030;28;20195;-71
2022/10/01 06:08:52;;;;;;;0.60;0.60;;;10.30;99.90;;;;;;5032892;28;20605;-71
2022/10/01 06:11:20;;;;;;;0.68;0.68;;;10.30;99.90;;;;;;5032952;28;20218;-69
2022/10/01 06:13:46;;;;;;;1.17;1.13;;;10.30;99.90;;;;;;5033289;28;20206;-70
2022/10/01 06:16:13;;;;;;;0.60;0.60;;;10.30;99.90;;;;;;5013971;28;20274;-70
2022/10/01 06:18:39;;;;;;;0.60;0.60;;;10.30;99.90;;;;;;5013772;28;20227;-70
2022/10/01 06:21:05;;;;;;;0.70;0.70;;;10.30;99.90;;;;;;5013903;28;20202;-70
2022/10/01 06:23:32;;;;;;;1.10;0.90;;;10.40;99.90;;;;;;5014283;28;20233;-71
2022/10/01 06:26:05;;;;;;;0.60;0.60;;;10.50;99.90;;;;;;5012411;28;20269;-71
2022/10/01 06:28:31;;;;;;;0.90;0.90;;;10.50;99.90;;;;;;5013495;28;20226;-71
2022/10/01 06:31:00;;;;;;;2.15;0.93;;;10.60;99.90;;;;;;5013731;28;20229;-69
2022/10/01 06:33:26;;;;;;;0.60;0.60;;;10.60;99.90;;;;;;5013289;28;20294;-71
2022/10/01 06:35:52;;;;;;;0.77;0.77;;;10.70;99.90;;;;;;5013534;28;20273;-71
2022/10/01 06:38:19;;;;;;;0.60;0.60;;;10.70;99.90;;;;;;5045280;28;20201;-72
2022/10/01 06:40:54;;;;;;;0.80;0.80;;;10.80;99.90;;;;;;5013603;28;20286;-71
2022/10/01 06:43:20;;;;;;;0.63;0.63;;;10.80;99.90;;;;;;5013437;28;20201;-71
2022/10/01 06:45:46;;;;;;;1.60;1.10;;;10.80;99.90;;;;;;5013667;28;20199;-71
2022/10/01 06:48:14;;;;;;;0.60;0.60;;;10.80;99.90;;;;;;5046388;28;20688;-71
2022/10/01 06:50:41;;;;;;;0.60;0.60;;;10.80;99.90;;;;;;5014192;28;21498;-71
2022/10/01 06:53:07;;;;;;;0.70;0.70;;;10.90;99.90;;;;;;5029645;28;20264;-71
2022/10/01 06:55:34;;;;;;;0.60;0.60;;;10.90;99.90;;;;;;5013316;28;20696;-71
2022/10/01 06:58:03;;;;;;;0.88;0.70;;;10.90;99.90;;;;;;5028300;28;20662;-71
2022/10/01 07:00:30;;;;;;;0.60;0.60;;;10.90;99.90;;;;;;5028337;28;20199;-71
2022/10/01 07:02:56;;;;;;;0.70;0.70;;;10.90;99.90;;;;;;5045876;28;20333;-71
2022/10/01 07:05:23;;;;;;;0.60;0.60;;;11.00;99.90;;;;;;5032581;28;20281;-71
2022/10/01 07:07:49;;;;;;;0.50;0.50;;;11.10;99.90;;;;;;5031533;28;20685;-72
2022/10/01 07:10:18;;;;;;;1.00;0.90;;;11.10;99.90;;;;;;5032573;28;20562;-72
2022/10/01 07:12:45;;;;;;;0.70;0.70;;;11.10;99.90;;;;;;5032282;28;20194;-71
2022/10/01 07:15:10;;;;;;;0.60;0.60;;;11.20;99.90;;;;;;5033680;28;20197;-72
2022/10/01 07:17:43;;;;;;;0.60;0.60;;;11.10;99.90;;;;;;5048622;28;20198;-71
2022/10/01 07:20:09;;;;;;;0.70;0.70;;;11.20;99.90;;;;;;5032620;28;20214;-71
2022/10/01 07:22:35;;;;;;;0.95;0.90;;;11.10;99.90;;;;;;5032499;28;20596;-72
2022/10/01 07:25:09;;;;;;;0.82;0.82;;;11.20;99.90;;;;;;5048807;28;20514;-71
2022/10/01 07:27:35;;;;;;;1.75;0.93;;;11.20;99.90;;;;;;5032473;28;20640;-71
2022/10/01 07:30:01;;;;;;;1.13;1.02;;;11.20;99.90;;;;;;5033344;28;20189;-71
2022/10/01 07:32:27;;;;;;;0.70;0.70;;;11.20;99.90;;;;;;5032541;28;20194;-71
2022/10/01 07:34:52;;;;;;;0.50;0.50;;;11.20;99.90;;;;;;5032522;28;20214;-72
2022/10/01 07:37:18;;;;;;;0.80;0.80;;;11.20;99.90;;;;;;5032412;28;20220;-71
2022/10/01 07:39:44;;;;;;;0.55;0.55;;;11.10;99.90;;;;;;5032744;28;20665;-72
2022/10/01 07:42:09;;;;;;;0.80;0.80;;;11.20;99.90;;;;;;5048063;28;20190;-70
2022/10/01 07:44:35;;;;;;;0.90;0.80;;;11.20;99.90;;;;;;5039831;28;20353;-72
2022/10/01 07:47:01;;;;;;;0.65;0.65;;;11.20;99.90;;;;;;5012908;28;20670;-72
2022/10/01 07:49:27;;;;;;;1.10;0.95;;;11.20;99.90;;;;;;5012560;28;20229;-72
2022/10/01 07:51:57;;;;;;;0.65;0.65;;;11.20;99.90;;;;;;5012957;28;20246;-71
2022/10/01 07:54:29;;;;;;;0.65;0.65;;;11.30;99.90;;;;;;5013556;28;20701;-73
2022/10/01 07:56:55;;;;;;;0.75;0.68;;;11.20;99.90;;;;;;5012821;28;20245;-71
2022/10/01 07:59:21;;;;;;;1.10;0.90;;;11.10;99.90;;;;;;5014792;28;20223;-70
2022/10/01 08:01:50;;;;;;;0.68;0.68;;;11.10;99.90;;;;;;5047629;28;20194;-71
2022/10/01 08:07:02;;;;;;;0.70;0.70;;;11.00;99.90;;;;;;5026064;28;20317;-70
2022/10/01 08:09:27;;;;;;;1.10;1.10;;;11.00;99.90;;;;;;5012401;28;20222;-70
2022/10/01 08:11:53;;;;;;;0.70;0.70;;;11.00;99.90;;;;;;5012654;28;20654;-70
2022/10/01 08:14:19;;;;;;;0.70;0.70;;;11.00;99.90;;;;;;5012428;28;20634;-71
2022/10/01 08:16:46;;;;;;;0.73;0.73;;;11.10;99.90;;;;;;5012561;28;20277;-70
2022/10/01 08:19:12;;;;;;;0.75;0.70;;;11.10;99.90;;;;;;5012589;28;20191;-70
2022/10/01 08:21:38;;;;;;;0.93;0.93;;;11.30;99.90;;;;;;5012295;28;20219;-70
2022/10/01 08:24:04;;;;;;;1.05;1.05;;;11.40;99.90;;;;;;5012456;28;20229;-70
2022/10/01 08:26:30;;;;;;;0.98;0.90;;;11.50;99.90;;;;;;5012313;28;20191;-71
2022/10/01 08:28:58;;;;;;;1.25;1.17;;;11.50;99.90;;;;;;5012329;28;20305;-70
2022/10/01 08:31:24;;;;;;;0.80;0.80;;;11.60;99.90;;;;;;5012292;28;20198;-71
2022/10/01 08:33:50;;;;;;;0.70;0.70;;;11.60;99.90;;;;;;5014173;28;20222;-70
2022/10/01 08:36:15;;;;;;;0.88;0.88;;;11.60;99.90;;;;;;5015721;28;20234;-70
2022/10/01 08:38:44;;;;;;;1.52;1.10;;;11.70;99.90;;;;;;5040647;28;20229;-71
2022/10/01 08:41:22;;;;;;;1.15;1.05;;;11.60;99.90;;;;;;5055530;28;20722;-71
2022/10/01 08:43:52;;;;;;;0.95;0.95;;;11.60;99.90;;;;;;5053977;28;20219;-70
2022/10/01 08:46:21;;;;;;;0.50;0.50;;;11.50;99.90;;;;;;5035488;28;20202;-71
2022/10/01 08:49:05;;;;;;;1.25;0.70;;;11.40;99.90;;;;;;5034146;28;20653;-71
2022/10/01 08:51:51;;;;;;;1.52;1.42;;;11.40;99.90;;;;;;5035307;28;20197;-71
2022/10/01 08:54:31;;;;;;;0.90;0.90;;;11.50;99.90;;;;;;5035209;28;20307;-71
2022/10/01 08:57:00;;;;;;;0.98;0.95;;;11.50;99.90;;;;;;5035198;28;20280;-71
2022/10/01 08:59:37;;;;;;;19.38;1.88;;;11.60;99.90;;;;;;5034930;28;20684;-70
2022/10/01 09:02:24;;;;;;;0.60;0.60;;;11.60;99.90;;;;;;5035174;28;20232;-71
2022/10/01 09:04:54;;;;;;;0.70;0.70;;;11.70;99.90;;;;;;5035202;28;20245;-72
2022/10/01 09:07:32;;;;;;;0.82;0.82;;;11.80;99.90;;;;;;5034883;28;20201;-70
2022/10/01 09:10:18;;;;;;;0.60;0.60;;;12.00;99.90;;;;;;5034906;28;20285;-70
2022/10/01 09:13:05;;;;;;;1.05;0.90;;;12.30;99.90;;;;;;5034427;28;20206;-71
2022/10/01 09:15:45;;;;;;;0.63;0.63;;;12.40;99.90;;;;;;5034765;28;20646;-69
2022/10/01 09:18:22;;;;;;;0.82;0.80;;;12.50;99.90;;;;;;5034949;28;20182;-70
2022/10/01 09:20:53;;;;;;;0.63;0.63;;;12.40;99.90;;;;;;5050119;28;20289;-70
2022/10/01 09:23:38;;;;;;;0.98;0.98;;;12.40;99.90;;;;;;5034703;28;20285;-70
2022/10/01 09:26:09;;;;;;;0.52;0.52;;;12.70;99.90;;;;;;5034781;28;20225;-70
2022/10/01 09:28:37;;;;;;;0.70;0.70;;;12.90;99.90;;;;;;5034477;28;20666;-70
2022/10/01 09:31:17;;;;;;;0.70;0.70;;;12.90;99.90;;;;;;5034757;28;20225;-70
2022/10/01 09:34:09;;;;;;;0.98;0.68;;;12.90;99.90;;;;;;5034167;28;20264;-70
2022/10/01 09:37:04;;;;;;;1.60;0.98;;;12.60;99.90;;;;;;5033770;28;20210;-70
2022/10/01 09:39:41;;;;;;;0.73;0.73;;;12.40;99.90;;;;;;5034368;28;20244;-70
2022/10/01 09:42:07;;;;;;;0.90;0.90;;;12.40;99.90;;;;;;5034364;28;20194;-70
2022/10/01 09:44:33;;;;;;;0.90;0.90;;;12.30;99.90;;;;;;5026834;28;20199;-70
2022/10/01 09:46:59;;;;;;;0.70;0.70;;;12.30;99.90;;;;;;5014654;28;20207;-70
2022/10/01 09:49:42;;;;;;;0.70;0.70;;;12.40;99.90;;;;;;5014454;28;20282;-70
2022/10/01 09:52:27;;;;;;;0.70;0.70;;;12.40;99.90;;;;;;5019175;28;20224;-70
2022/10/01 09:55:00;;;;;;;0.60;0.60;;;12.50;99.90;;;;;;5034206;28;20684;-70
2022/10/01 09:57:28;;;;;;;0.90;0.90;;;12.60;99.90;;;;;;5014332;28;20202;-69
2022/10/01 10:00:09;;;;;;;0.60;0.60;;;12.60;99.90;;;;;;5020719;28;20646;-69
2022/10/01 10:02:41;;;;;;;0.65;0.65;;;12.70;99.90;;;;;;5033892;28;20560;-70
2022/10/01 10:05:15;;;;;;;1.08;0.85;;;12.80;99.90;;;;;;5034062;28;20222;-70
2022/10/01 10:07:46;;;;;;;0.80;0.80;;;12.70;99.90;;;;;;5032591;28;20209;-69
2022/10/01 10:10:26;;;;;;;0.75;0.75;;;12.60;99.90;;;;;;5033991;28;20689;-69
2022/10/01 10:13:33;;;;;;;0.73;0.73;;;12.50;99.90;;;;;;5033943;28;20198;-70
2022/10/01 10:16:06;;;;;;;0.77;0.77;;;12.50;99.90;;;;;;5033510;28;20202;-70
2022/10/01 10:18:38;;;;;;;1.08;0.82;;;12.50;99.90;;;;;;5032394;28;20284;-69
2022/10/01 10:21:11;;;;;;;11.23;1.40;;;12.60;99.90;;;;;;5033674;28;20329;-69
2022/10/01 10:23:48;;;;;;;0.50;0.50;;;12.60;99.90;;;;;;5032879;28;20563;-69
2022/10/01 10:26:19;;;;;;;0.60;0.60;;;12.50;99.90;;;;;;5032429;28;20193;-69
2022/10/01 10:28:45;;;;;;;0.75;0.75;;;12.60;99.90;;;;;;5031362;28;20230;-69
2022/10/01 10:31:22;;;;;;;1.20;1.08;;;12.70;99.90;;;;;;4983095;28;20226;-69
2022/10/01 10:33:57;;;;;;;3.13;1.35;;;12.90;99.90;;;;;;4994036;28;20617;-69
2022/10/01 10:36:28;;;;;;;0.73;0.73;;;13.00;99.90;;;;;;4993839;28;20230;-70
2022/10/01 10:38:55;;;;;;;0.50;0.50;;;13.20;99.90;;;;;;4994138;28;20580;-70
2022/10/01 10:41:25;;;;;;;0.80;0.80;;;13.20;99.90;;;;;;4993887;28;20224;-70
2022/10/01 10:44:03;;;;;;;0.80;0.75;;;13.20;99.90;;;;;;4993698;28;20290;-71
2022/10/01 10:46:34;;;;;;;0.60;0.60;;;13.20;99.90;;;;;;4993830;28;20573;-70
2022/10/01 10:49:14;;;;;;;0.68;0.68;;;13.10;99.90;;;;;;5003560;28;20202;-69
2022/10/01 10:51:52;;;;;;;0.60;0.60;;;13.10;99.90;;;;;;5013168;28;20206;-68
2022/10/01 10:54:23;;;;;;;0.70;0.70;;;13.10;99.90;;;;;;5013369;28;20210;-70
2022/10/01 10:56:54;;;;;;;0.70;0.70;;;13.10;99.90;;;;;;4980549;28;20228;-71
2022/10/01 10:59:20;;;;;;;0.60;0.60;;;13.20;99.90;;;;;;4993593;28;20270;-70
2022/10/01 11:01:46;;;;;;;0.60;0.60;;;13.20;99.90;;;;;;4993539;28;20233;-71
2022/10/01 11:04:32;;;;;;;0.88;0.88;;;13.60;99.90;;;;;;4976238;28;20691;-69
2022/10/01 11:07:01;;;;;;;2.38;1.35;;;13.90;99.90;;;;;;4993652;28;20282;-70
2022/10/01 11:09:55;;;;;;;1.15;1.05;;;14.20;99.90;;;;;;4993462;28;20202;-71
2022/10/01 11:12:40;;;;;;;0.45;0.45;;;14.30;99.90;;;;;;4993293;28;20211;-69
2022/10/01 11:15:49;;;;;;;0.60;0.60;;;14.00;99.90;;;;;;4993286;28;20647;-70
2022/10/01 11:19:03;;;;;;;0.52;0.52;;;14.00;99.90;;;;;;4952499;29;20220;-70
2022/10/01 11:21:47;;;;;;;0.93;0.90;;;14.00;99.90;;;;;;4918663;29;20697;-70
2022/10/01 11:24:37;;;;;;;0.52;0.52;;;14.00;99.90;;;;;;4952686;29;20197;-71
2022/10/01 11:27:12;;;;;;;0.93;0.90;;;13.90;99.90;;;;;;4965612;28;20224;-69
2022/10/01 11:29:51;;;;;;;0.50;0.50;;;13.90;99.90;;;;;;4991107;28;20294;-70
2022/10/01 11:33:02;;;;;;;0.55;0.55;;;13.80;99.90;;;;;;4991267;28;20507;-71
2022/10/01 11:35:49;;;;;;;3.05;1.60;;;13.90;99.90;;;;;;4991052;28;20306;-70
2022/10/01 11:38:36;;;;;;;0.50;0.50;;;13.70;99.90;;;;;;4991144;28;20248;-71
2022/10/01 11:41:26;;;;;;;2.55;0.88;;;13.70;99.90;;;;;;4991280;28;20192;-71
2022/10/01 11:43:59;;;;;;;0.45;0.45;;;13.60;99.90;;;;;;4989148;28;20204;-71
2022/10/01 11:47:06;;;;;;;0.50;0.50;;;13.70;99.90;;;;;;5006573;28;20217;-71
2022/10/01 11:49:50;;;;;;;0.80;0.80;;;13.80;99.90;;;;;;4990895;28;20266;-71
2022/10/01 11:52:46;;;;;;;0.60;0.60;;;14.00;99.90;;;;;;5003485;28;20372;-71
2022/10/01 12:01:20;;;;;;;0.45;0.45;;;14.10;99.90;;;;;;5012672;28;20213;-71
2022/10/01 12:03:51;;;;;;;0.80;0.75;;;14.00;99.90;;;;;;5012687;28;20607;-71
2022/10/01 12:06:29;;;;;;;1.10;1.00;;;14.00;99.90;;;;;;5012646;28;20195;-72
2022/10/01 12:09:50;;;;;;;0.50;0.50;;;13.90;99.90;;;;;;4997348;28;20276;-70
2022/10/01 12:12:22;;;;;;;0.77;0.77;;;13.90;99.90;;;;;;4983312;28;20227;-71
2022/10/01 12:15:10;;;;;;;0.68;0.68;;;13.90;99.90;;;;;;5016328;28;20356;-71
2022/10/01 12:17:50;;;;;;;0.50;0.50;;;13.90;99.90;;;;;;5016057;28;20248;-70
2022/10/01 12:20:42;;;;;;;0.60;0.60;;;14.10;99.90;;;;;;5016197;28;20281;-71
2022/10/01 12:23:14;;;;;;;0.82;0.80;;;14.30;99.90;;;;;;5009862;28;20214;-71
2022/10/01 12:26:05;;;;;;;0.90;0.90;;;14.70;99.90;;;;;;5035753;28;20194;-72
2022/10/01 12:29:01;;;;;;;0.60;0.60;;;15.00;99.90;;;;;;5043451;28;20234;-71
2022/10/01 12:31:45;;;;;;;0.70;0.70;;;15.20;99.90;;;;;;5035732;28;20221;-70
2022/10/01 12:34:38;;;;;;;0.68;0.68;;;15.00;99.90;;;;;;5035722;28;20221;-71
2022/10/01 12:37:59;;;;;;;1.85;1.00;;;15.00;99.90;;;;;;5035689;28;20205;-71
2022/10/01 12:40:46;;;;;;;0.63;0.63;;;14.90;99.90;;;;;;4993300;28;20274;-71
2022/10/01 12:43:39;;;;;;;0.77;0.77;;;14.70;99.90;;;;;;4974768;28;20206;-72
2022/10/01 12:46:17;;;;;;;0.47;0.47;;;14.50;99.90;;;;;;4977550;28;20230;-71
2022/10/01 12:48:58;;;;;;;0.47;0.47;;;14.40;99.90;;;;;;4993770;28;20215;-71
2022/10/01 12:51:43;;;;;;;0.55;0.55;;;14.30;99.90;;;;;;4993837;28;20217;-72
2022/10/01 12:54:24;;;;;;;0.60;0.60;;;14.20;99.90;;;;;;4993788;28;20227;-71
2022/10/01 12:57:11;;;;;;;0.50;0.50;;;14.10;99.90;;;;;;4993968;28;20690;-72
2022/10/01 12:59:39;;;;;;;1.17;1.05;;;14.20;99.90;;;;;;4993653;28;20192;-70
2022/10/01 13:02:21;;;;;;;1.58;0.82;;;14.40;99.90;;;;;;4993840;28;20235;-71
2022/10/01 13:04:48;;;;;;;0.50;0.50;;;14.40;99.90;;;;;;4977386;28;20240;-71
2022/10/01 13:07:47;;;;;;;0.50;0.50;;;14.40;99.90;;;;;;4986224;28;20212;-71
2022/10/01 13:10:39;;;;;;;0.90;0.70;;;14.20;99.90;;;;;;4974158;28;20242;-71
2022/10/01 13:13:13;;;;;;;0.50;0.50;;;14.00;99.90;;;;;;4977829;28;20212;-70
2022/10/01 13:15:43;;;;;;;0.55;0.55;;;13.90;99.90;;;;;;5014915;28;20252;-70
2022/10/01 13:19:02;;;;;;;0.55;0.55;;;13.80;99.90;;;;;;5014981;28;20193;-70
2022/10/01 13:21:47;;;;;;;0.50;0.50;;;13.80;99.90;;;;;;4973837;28;20200;-71
2022/10/01 13:24:34;;;;;;;0.43;0.43;;;13.70;99.90;;;;;;4973896;28;20312;-71
2022/10/01 13:27:19;;;;;;;0.82;0.82;;;13.70;99.90;;;;;;4974029;28;20208;-70
2022/10/01 13:29:45;;;;;;;0.40;0.40;;;13.70;99.90;;;;;;4954560;29;20209;-71